createdAt,value
2023-07-15T00:02:29.720Z,13.90
2023-07-15T00:05:02.641Z,6.53
2023-07-15T00:07:34.900Z,8.45
2023-07-15T00:10:11.792Z,7.10
2023-07-15T00:12:44.001Z,6.55
2023-07-15T00:15:17.587Z,9.32
2023-07-15T00:17:49.904Z,6.55
2023-07-15T00:20:22.866Z,8.80
2023-07-15T00:22:55.142Z,7.90
2023-07-15T00:25:32.720Z,8.20
2023-07-15T00:28:06.903Z,7.95
2023-07-15T00:30:39.682Z,10.10
2023-07-15T00:33:17.830Z,6.60
2023-07-15T00:35:50.675Z,9.27
2023-07-15T00:38:22.844Z,9.63
2023-07-15T00:40:58.264Z,10.57
2023-07-15T00:44:00.752Z,6.13
2023-07-15T00:47:05.586Z,7.80
2023-07-15T00:49:39.725Z,8.10
2023-07-15T00:52:16.228Z,7.47
2023-07-15T00:55:24.112Z,7.78
2023-07-15T00:57:58.771Z,11.52
2023-07-15T01:00:32.452Z,7.72
2023-07-15T01:03:07.827Z,9.23
2023-07-15T01:05:40.208Z,7.60
2023-07-15T01:08:12.682Z,8.63
2023-07-15T01:13:36.041Z,7.47
2023-07-15T01:16:09.192Z,8.20
2023-07-15T01:18:44.510Z,6.75
2023-07-15T01:21:20.583Z,11.57
2023-07-15T01:23:55.868Z,7.10
2023-07-15T01:27:03.468Z,10.95
2023-07-15T01:29:36.491Z,7.53
2023-07-15T01:32:09.686Z,7.80
2023-07-15T01:34:42.982Z,10.00
2023-07-15T01:37:15.344Z,7.05
2023-07-15T01:39:51.125Z,6.57
2023-07-15T01:42:23.365Z,7.00
2023-07-15T01:44:53.355Z,9.35
2023-07-15T01:47:25.585Z,8.60
2023-07-15T01:49:58.123Z,7.07
2023-07-15T01:52:30.645Z,9.85
2023-07-15T01:55:05.841Z,11.55
2023-07-15T02:01:21.726Z,7.93
2023-07-15T02:03:54.502Z,8.25
2023-07-15T02:06:27.404Z,8.25
2023-07-15T02:09:00.168Z,9.77
2023-07-15T02:11:35.761Z,10.70
2023-07-15T02:14:10.285Z,8.35
2023-07-15T02:19:28.690Z,8.70
2023-07-15T02:22:01.271Z,8.10
2023-07-15T02:24:33.907Z,7.25
2023-07-15T02:27:09.525Z,9.50
2023-07-15T02:29:42.439Z,8.70
2023-07-15T02:32:19.759Z,9.00
2023-07-15T02:34:52.381Z,11.65
2023-07-15T02:37:24.839Z,11.48
2023-07-15T02:39:57.408Z,10.60
2023-07-15T02:42:34.756Z,8.48
2023-07-15T02:45:09.137Z,10.90
2023-07-15T02:47:42.220Z,10.50
2023-07-15T02:50:15.061Z,9.27
2023-07-15T02:52:47.383Z,7.88
2023-07-15T02:55:20.048Z,10.05
2023-07-15T02:57:55.320Z,8.18
2023-07-15T03:00:28.177Z,12.50
2023-07-15T03:03:01.199Z,8.70
2023-07-15T03:05:33.948Z,12.60
2023-07-15T03:08:06.854Z,9.95
2023-07-15T03:10:39.844Z,8.35
2023-07-15T03:13:15.191Z,10.70
2023-07-15T03:15:48.137Z,8.63
2023-07-15T03:18:23.061Z,12.25
2023-07-15T03:20:56.401Z,9.80
2023-07-15T03:23:28.971Z,8.10
2023-07-15T03:26:01.714Z,7.53
2023-07-15T03:28:36.543Z,9.55
2023-07-15T03:31:08.818Z,10.30
2023-07-15T03:33:40.818Z,9.65
2023-07-15T03:36:59.248Z,10.70
2023-07-15T03:39:31.498Z,9.82
2023-07-15T03:42:18.662Z,8.35
2023-07-15T03:44:53.461Z,10.80
2023-07-15T03:47:25.716Z,9.27
2023-07-15T03:49:57.640Z,11.02
2023-07-15T03:52:29.783Z,9.90
2023-07-15T03:55:04.902Z,7.60
2023-07-15T03:57:37.601Z,12.98
2023-07-15T04:00:18.990Z,8.30
2023-07-15T04:02:54.988Z,13.15
2023-07-15T04:05:27.183Z,9.13
2023-07-15T04:07:59.679Z,7.45
2023-07-15T04:10:31.788Z,9.10
2023-07-15T04:13:04.103Z,9.23
2023-07-15T04:15:38.776Z,7.53
2023-07-15T04:18:11.260Z,9.32
2023-07-15T04:20:44.006Z,12.80
2023-07-15T04:23:16.506Z,8.85
2023-07-15T04:25:49.583Z,10.10
2023-07-15T04:28:43.471Z,10.07
2023-07-15T04:31:18.425Z,10.95
2023-07-15T04:33:52.403Z,12.35
2023-07-15T04:36:26.383Z,10.13
2023-07-15T04:38:58.855Z,10.77
2023-07-15T04:41:31.283Z,7.40
2023-07-15T04:44:03.836Z,11.35
2023-07-15T04:46:38.727Z,10.88
2023-07-15T04:49:12.012Z,10.23
2023-07-15T04:51:49.610Z,12.13
2023-07-15T04:54:21.770Z,7.60
2023-07-15T04:56:53.686Z,8.50
2023-07-15T04:59:26.011Z,8.60
2023-07-15T05:02:00.525Z,9.85
2023-07-15T05:04:32.642Z,8.60
2023-07-15T05:07:04.425Z,8.32
2023-07-15T05:09:36.622Z,11.30
2023-07-15T05:12:09.682Z,7.18
2023-07-15T05:14:42.065Z,10.70
2023-07-15T05:17:16.524Z,9.43
2023-07-15T05:19:48.647Z,8.05
2023-07-15T05:23:19.982Z,10.25
2023-07-15T05:26:06.785Z,8.85
2023-07-15T05:28:39.870Z,8.90
2023-07-15T05:31:12.608Z,6.53
2023-07-15T05:33:48.443Z,11.32
2023-07-15T05:36:23.346Z,7.50
2023-07-15T05:38:55.499Z,6.97
2023-07-15T05:41:28.081Z,8.43
2023-07-15T05:44:00.259Z,7.45
2023-07-15T05:46:32.936Z,9.55
2023-07-15T05:49:07.773Z,8.75
2023-07-15T05:51:40.248Z,6.72
2023-07-15T05:54:12.413Z,8.77
2023-07-15T05:56:45.490Z,6.78
2023-07-15T05:59:17.626Z,7.68
2023-07-15T06:01:50.249Z,8.20
2023-07-15T06:04:25.085Z,8.15
2023-07-15T06:06:57.630Z,8.05
2023-07-15T06:09:29.861Z,6.85
2023-07-15T06:12:02.381Z,7.90
2023-07-15T06:14:35.442Z,7.97
2023-07-15T06:17:08.559Z,10.63
2023-07-15T06:19:43.581Z,8.27
2023-07-15T06:22:16.139Z,9.23
2023-07-15T06:24:50.260Z,7.40
2023-07-15T06:27:22.820Z,9.60
2023-07-15T06:29:55.002Z,12.18
2023-07-15T06:32:27.625Z,7.50
2023-07-15T06:35:02.512Z,10.50
2023-07-15T06:37:36.923Z,8.63
2023-07-15T06:40:12.063Z,7.75
2023-07-15T06:42:44.563Z,9.02
2023-07-15T06:45:17.196Z,7.38
2023-07-15T06:47:49.843Z,7.40
2023-07-15T06:50:27.735Z,8.75
2023-07-15T06:53:03.200Z,7.93
2023-07-15T06:55:35.382Z,7.53
2023-07-15T06:58:08.082Z,7.88
2023-07-15T07:00:40.256Z,8.77
2023-07-15T07:03:12.786Z,8.30
2023-07-15T07:05:47.793Z,6.25
2023-07-15T07:08:20.444Z,7.82
2023-07-15T07:11:08.562Z,5.57
2023-07-15T07:13:41.172Z,7.13
2023-07-15T07:16:13.371Z,6.70
2023-07-15T07:18:46.502Z,6.03
2023-07-15T07:21:25.643Z,6.03
2023-07-15T07:24:00.024Z,6.05
2023-07-15T07:26:32.120Z,7.10
2023-07-15T07:29:07.479Z,8.07
2023-07-15T07:31:39.520Z,6.97
2023-07-15T07:34:12.671Z,8.10
2023-07-15T07:36:47.521Z,8.60
2023-07-15T07:39:20.023Z,7.65
2023-07-15T07:41:52.182Z,6.53
2023-07-15T07:44:25.010Z,10.23
2023-07-15T07:46:57.251Z,6.32
2023-07-15T07:49:30.561Z,6.55
2023-07-15T07:52:07.268Z,11.10
2023-07-15T07:54:41.336Z,6.05
2023-07-15T07:57:15.701Z,7.55
2023-07-15T07:59:48.062Z,6.40
2023-07-15T08:02:30.280Z,8.88
2023-07-15T08:05:11.530Z,14.07
2023-07-15T08:07:48.222Z,8.60
2023-07-15T08:10:48.737Z,10.95
2023-07-15T08:13:25.701Z,8.18
2023-07-15T08:16:01.977Z,12.52
2023-07-15T08:18:33.664Z,9.18
2023-07-15T08:24:50.167Z,9.98
2023-07-15T08:27:23.687Z,10.63
2023-07-15T08:29:55.702Z,10.10
2023-07-15T08:32:28.113Z,6.22
2023-07-15T08:35:03.824Z,7.88
2023-07-15T08:37:36.547Z,5.50
2023-07-15T08:43:57.146Z,4.65
2023-07-15T08:46:31.019Z,4.68
2023-07-15T08:49:04.563Z,6.40
2023-07-15T08:52:19.866Z,4.53
2023-07-15T08:55:45.480Z,4.78
2023-07-15T08:58:17.857Z,4.30
2023-07-15T09:00:56.056Z,5.00
2023-07-15T09:03:29.407Z,7.43
2023-07-15T09:06:05.000Z,5.30
2023-07-15T09:08:37.760Z,6.97
2023-07-15T09:11:12.813Z,5.05
2023-07-15T09:13:46.057Z,6.03
2023-07-15T09:16:18.410Z,7.22
2023-07-15T09:18:50.701Z,4.88
2023-07-15T09:21:22.767Z,8.48
2023-07-15T09:23:54.869Z,6.90
2023-07-15T09:26:29.407Z,6.82
2023-07-15T09:29:01.643Z,6.93
2023-07-15T09:32:27.954Z,4.55
2023-07-15T09:35:12.800Z,4.50
2023-07-15T09:37:44.910Z,6.07
2023-07-15T09:44:13.342Z,7.25
2023-07-15T09:46:45.887Z,4.78
2023-07-15T09:49:17.856Z,5.85
2023-07-15T09:51:50.563Z,5.93
2023-07-15T09:54:25.883Z,5.25
2023-07-15T09:57:04.768Z,4.65
2023-07-15T09:59:48.929Z,4.90
2023-07-15T10:02:34.661Z,4.03
2023-07-15T10:05:11.284Z,5.13
2023-07-15T10:07:56.080Z,4.07
2023-07-15T10:10:47.644Z,3.90
2023-07-15T10:13:22.027Z,5.43
2023-07-15T10:16:00.501Z,3.92
2023-07-15T10:18:35.726Z,6.68
2023-07-15T10:21:10.642Z,4.10
2023-07-15T10:23:43.133Z,5.95
2023-07-15T10:26:26.366Z,3.53
2023-07-15T10:29:28.961Z,6.28
2023-07-15T10:32:31.075Z,7.05
2023-07-15T10:35:08.888Z,6.32
2023-07-15T10:37:41.185Z,6.30
2023-07-15T10:40:53.811Z,5.18
2023-07-15T10:43:39.582Z,5.75
2023-07-15T10:46:15.150Z,7.63
2023-07-15T10:48:50.282Z,3.97
2023-07-15T10:51:25.324Z,4.55
2023-07-15T10:53:57.542Z,12.77
2023-07-15T10:56:29.992Z,5.05
2023-07-15T10:59:02.271Z,5.50
2023-07-15T11:01:35.097Z,5.05
2023-07-15T11:04:28.351Z,5.65
2023-07-15T11:07:04.297Z,5.50
2023-07-15T11:09:37.136Z,3.20
2023-07-15T11:12:11.662Z,6.43
2023-07-15T11:14:46.722Z,5.07
2023-07-15T11:17:19.799Z,4.25
2023-07-15T11:19:56.843Z,6.22
2023-07-15T11:22:29.438Z,4.65
2023-07-15T11:25:01.840Z,4.60
2023-07-15T11:27:34.247Z,4.18
2023-07-15T11:30:06.785Z,4.28
2023-07-15T11:32:39.303Z,4.05
2023-07-15T11:35:17.641Z,4.78
2023-07-15T11:37:50.606Z,4.00
2023-07-15T11:40:33.863Z,4.68
2023-07-15T11:43:09.777Z,4.10
2023-07-15T11:45:45.592Z,3.47
2023-07-15T11:48:24.410Z,3.90
2023-07-15T11:51:00.363Z,5.63
2023-07-15T11:53:36.006Z,3.97
2023-07-15T11:56:08.814Z,4.93
2023-07-15T11:58:42.323Z,3.58
2023-07-15T12:01:21.554Z,3.40
2023-07-15T12:03:54.092Z,5.95
2023-07-15T12:06:33.555Z,3.60
2023-07-15T12:09:07.537Z,4.15
2023-07-15T12:11:39.433Z,3.53
2023-07-15T12:14:13.565Z,4.13
2023-07-15T12:16:45.647Z,5.82
2023-07-15T12:19:20.378Z,5.00
2023-07-15T12:21:54.962Z,4.88
2023-07-15T12:24:27.262Z,6.00
2023-07-15T12:26:59.146Z,5.53
2023-07-15T12:29:39.267Z,3.53
2023-07-15T12:32:12.282Z,4.38
2023-07-15T12:34:44.721Z,4.93
2023-07-15T12:37:19.812Z,3.20
2023-07-15T12:39:52.082Z,3.05
2023-07-15T12:42:24.007Z,3.03
2023-07-15T12:44:56.225Z,3.03
2023-07-15T12:47:28.316Z,6.60
2023-07-15T12:50:01.769Z,4.57
2023-07-15T12:52:36.358Z,4.57
2023-07-15T12:55:09.727Z,4.65
2023-07-15T12:57:45.701Z,6.00
2023-07-15T13:03:59.720Z,3.53
2023-07-15T13:06:34.985Z,5.20
2023-07-15T13:09:10.009Z,7.20
2023-07-15T13:11:43.785Z,2.92
2023-07-15T13:14:16.175Z,3.35
2023-07-15T13:16:48.179Z,4.30
2023-07-15T13:19:20.587Z,3.08
2023-07-15T13:21:52.542Z,4.75
2023-07-15T13:24:28.002Z,4.07
2023-07-15T13:26:59.742Z,2.92
2023-07-15T13:29:32.223Z,3.40
2023-07-15T13:32:04.286Z,3.58
2023-07-15T13:34:36.543Z,3.08
2023-07-15T13:37:08.704Z,3.03
2023-07-15T13:39:47.179Z,4.78
2023-07-15T13:42:21.885Z,3.38
2023-07-15T13:44:58.025Z,2.78
2023-07-15T13:47:29.984Z,3.17
2023-07-15T13:50:02.403Z,3.88
2023-07-15T13:52:37.384Z,4.55
2023-07-15T13:55:13.043Z,3.28
2023-07-15T14:01:38.261Z,3.60
2023-07-15T14:04:12.675Z,5.68
2023-07-15T14:06:48.261Z,3.10
2023-07-15T14:09:21.803Z,5.43
2023-07-15T14:11:57.924Z,2.97
2023-07-15T14:14:32.498Z,3.78
2023-07-15T14:17:09.571Z,3.95
2023-07-15T14:19:41.862Z,5.65
2023-07-15T14:22:17.567Z,3.92
2023-07-15T14:24:52.518Z,5.65
2023-07-15T14:27:29.306Z,11.32
2023-07-15T14:30:01.536Z,6.07
2023-07-15T14:32:34.051Z,4.00
2023-07-15T14:35:06.225Z,3.70
2023-07-15T14:37:38.821Z,4.05
2023-07-15T14:40:12.724Z,4.78
2023-07-15T14:42:51.467Z,3.08
2023-07-15T14:45:24.723Z,5.30
2023-07-15T14:47:57.744Z,4.10
2023-07-15T14:50:29.933Z,5.70
2023-07-15T14:53:05.305Z,4.18
2023-07-15T14:55:37.536Z,4.25
2023-07-15T14:58:12.838Z,5.30
2023-07-15T15:00:45.137Z,4.57
2023-07-15T15:03:17.814Z,5.47
2023-07-15T15:05:50.614Z,6.13
2023-07-15T15:08:26.312Z,3.72
2023-07-15T15:11:02.838Z,4.05
2023-07-15T15:13:38.068Z,4.68
2023-07-15T15:16:12.659Z,5.15
2023-07-15T15:18:47.138Z,4.55
2023-07-15T15:21:20.492Z,2.95
2023-07-15T15:23:54.521Z,3.15
2023-07-15T15:26:26.663Z,7.60
2023-07-15T15:29:05.441Z,6.70
2023-07-15T15:31:37.573Z,4.18
2023-07-15T15:34:12.827Z,3.88
2023-07-15T15:36:44.863Z,3.75
2023-07-15T15:39:17.645Z,4.68
2023-07-15T15:41:58.242Z,7.05
2023-07-15T15:44:46.508Z,5.47
2023-07-15T15:47:18.643Z,6.75
2023-07-15T15:49:51.141Z,5.68
2023-07-15T15:52:23.342Z,8.85
2023-07-15T15:54:57.986Z,3.97
2023-07-15T15:57:30.330Z,4.38
2023-07-15T16:00:06.793Z,4.63
2023-07-15T16:02:39.087Z,5.03
2023-07-15T16:05:19.644Z,9.15
2023-07-15T16:07:56.224Z,7.80
2023-07-15T16:10:35.242Z,8.63
2023-07-15T16:13:09.977Z,5.03
2023-07-15T16:15:51.529Z,3.70
2023-07-15T16:18:24.201Z,7.22
2023-07-15T16:20:56.841Z,4.80
2023-07-15T16:23:28.936Z,7.78
2023-07-15T16:26:01.923Z,6.55
2023-07-15T16:28:33.949Z,5.60
2023-07-15T16:31:09.742Z,6.45
2023-07-15T16:33:42.029Z,6.18
2023-07-15T16:36:14.766Z,5.95
2023-07-15T16:38:46.919Z,6.68
2023-07-15T16:41:21.255Z,4.70
2023-07-15T16:43:55.045Z,6.35
2023-07-15T16:47:10.256Z,8.35
2023-07-15T16:50:27.917Z,7.97
2023-07-15T16:53:00.544Z,8.60
2023-07-15T16:55:33.100Z,10.70
2023-07-15T16:58:06.211Z,4.55
2023-07-15T17:00:39.052Z,5.65
2023-07-15T17:03:14.387Z,5.38
2023-07-15T17:05:46.842Z,8.98
2023-07-15T17:08:19.570Z,6.78
2023-07-15T17:10:52.121Z,5.22
2023-07-15T17:13:24.771Z,7.15
2023-07-15T17:15:56.975Z,4.55
2023-07-15T17:18:32.554Z,4.95
2023-07-15T17:24:32.203Z,8.23
2023-07-15T17:27:04.372Z,7.53
2023-07-15T17:30:12.000Z,5.18
2023-07-15T17:33:10.661Z,4.22
2023-07-15T17:36:01.725Z,5.90
2023-07-15T17:38:34.622Z,18.15
2023-07-15T17:41:08.186Z,6.50
2023-07-15T17:43:40.690Z,7.63
2023-07-15T17:46:13.320Z,12.25
2023-07-15T17:48:45.986Z,6.13
2023-07-15T17:51:21.045Z,6.57
2023-07-15T17:53:53.643Z,6.53
2023-07-15T17:56:25.901Z,6.95
2023-07-15T17:58:58.362Z,9.43
2023-07-15T18:01:30.849Z,7.25
2023-07-15T18:04:03.426Z,8.18
2023-07-15T18:06:38.412Z,9.98
2023-07-15T18:09:11.107Z,10.80
2023-07-15T18:15:55.343Z,8.63
2023-07-15T18:18:47.042Z,10.80
2023-07-15T18:21:20.985Z,10.45
2023-07-15T18:23:57.463Z,9.80
2023-07-15T18:34:29.127Z,9.13
2023-07-15T18:37:33.281Z,7.18
2023-07-15T18:40:44.940Z,6.15
2023-07-15T18:43:17.398Z,7.68
2023-07-15T18:45:49.460Z,8.55
2023-07-15T18:48:21.887Z,8.48
2023-07-15T18:51:42.571Z,8.43
2023-07-15T18:54:15.109Z,8.85
2023-07-15T18:56:49.657Z,7.70
2023-07-15T18:59:21.839Z,9.23
2023-07-15T19:01:53.819Z,15.38
2023-07-15T19:04:26.286Z,12.77
2023-07-15T19:07:05.346Z,10.75
2023-07-15T19:09:38.010Z,9.73
2023-07-15T19:12:13.521Z,10.50
2023-07-15T19:14:46.061Z,11.55
2023-07-15T19:17:18.452Z,9.40
2023-07-15T19:19:50.732Z,7.28
2023-07-15T19:22:22.669Z,15.30
2023-07-15T19:24:55.021Z,11.27
2023-07-15T19:27:29.760Z,8.65
2023-07-15T19:30:02.019Z,7.95
2023-07-15T19:32:36.717Z,9.23
2023-07-15T19:35:09.983Z,10.98
2023-07-15T19:37:41.884Z,8.35
2023-07-15T19:40:14.943Z,9.98
2023-07-15T19:42:50.121Z,8.32
2023-07-15T19:45:22.867Z,8.13
2023-07-15T19:47:57.454Z,9.45
2023-07-15T19:51:39.618Z,10.13
2023-07-15T19:54:14.870Z,9.75
2023-07-15T19:56:47.525Z,13.82
2023-07-15T19:59:22.279Z,11.00
2023-07-15T20:01:54.534Z,11.95
2023-07-15T20:04:26.458Z,12.07
2023-07-15T20:06:58.709Z,11.82
2023-07-15T20:09:30.562Z,14.13
2023-07-15T20:12:03.031Z,15.30
2023-07-15T20:14:37.694Z,12.70
2023-07-15T20:17:11.511Z,16.23
2023-07-15T20:19:43.694Z,10.98
2023-07-15T20:22:17.817Z,9.32
2023-07-15T20:24:50.533Z,7.47
2023-07-15T20:27:23.209Z,11.15
2023-07-15T20:29:58.581Z,8.57
2023-07-15T20:32:31.448Z,8.27
2023-07-15T20:35:04.043Z,11.13
2023-07-15T20:37:36.944Z,8.20
2023-07-15T20:40:19.447Z,11.40
2023-07-15T20:42:52.190Z,8.68
2023-07-15T20:45:27.695Z,4.78
2023-07-15T20:48:00.610Z,6.05
2023-07-15T20:50:33.383Z,5.60
2023-07-15T20:53:09.107Z,5.18
2023-07-15T20:55:43.253Z,5.97
2023-07-15T20:58:16.159Z,5.60
2023-07-15T21:00:55.547Z,6.25
2023-07-15T21:03:29.407Z,4.80
2023-07-15T21:06:04.882Z,6.07
2023-07-15T21:08:40.640Z,3.95
2023-07-15T21:11:15.339Z,5.03
2023-07-15T21:13:48.150Z,6.88
2023-07-15T21:16:23.337Z,6.28
2023-07-15T21:18:56.421Z,5.70
2023-07-15T21:21:29.019Z,7.93
2023-07-15T21:24:01.645Z,7.43
2023-07-15T21:26:34.140Z,7.13
2023-07-15T21:29:10.850Z,7.82
2023-07-15T21:31:45.954Z,6.10
2023-07-15T21:34:18.173Z,6.30
2023-07-15T21:36:51.234Z,5.03
2023-07-15T21:39:23.552Z,4.78
2023-07-15T21:41:55.533Z,5.70
2023-07-15T21:44:27.902Z,8.73
2023-07-15T21:47:02.380Z,6.70
2023-07-15T21:49:34.637Z,7.88
2023-07-15T21:52:23.164Z,10.35
2023-07-15T21:54:55.369Z,5.93
2023-07-15T21:57:27.266Z,6.30
2023-07-15T21:59:59.563Z,6.38
2023-07-15T22:02:34.514Z,7.70
2023-07-15T22:05:09.926Z,5.18
2023-07-15T22:07:44.344Z,8.00
2023-07-15T22:10:16.749Z,6.43
2023-07-15T22:12:48.829Z,7.82
2023-07-15T22:15:21.273Z,9.68
2023-07-15T22:17:55.940Z,9.68
2023-07-15T22:20:28.564Z,10.75
2023-07-15T22:23:10.976Z,12.70
2023-07-15T22:25:43.564Z,7.80
2023-07-15T22:28:15.505Z,6.07
2023-07-15T22:30:47.926Z,8.02
2023-07-15T22:33:22.428Z,11.00
2023-07-15T22:35:54.768Z,6.72
2023-07-15T22:38:26.832Z,8.55
2023-07-15T22:40:59.404Z,7.63
2023-07-15T22:43:31.463Z,8.98
2023-07-15T22:46:04.112Z,8.68
2023-07-15T22:48:39.404Z,8.15
2023-07-15T22:51:11.680Z,7.88
2023-07-15T22:53:43.793Z,9.15
2023-07-15T22:56:18.087Z,7.22
2023-07-15T22:58:50.114Z,10.30
2023-07-15T23:01:22.456Z,9.52
2023-07-15T23:04:21.341Z,7.25
2023-07-15T23:06:56.421Z,7.80
2023-07-15T23:09:28.448Z,7.28
2023-07-15T23:12:01.196Z,8.73
2023-07-15T23:14:33.142Z,9.10
2023-07-15T23:17:05.630Z,9.68
2023-07-15T23:19:40.290Z,9.45
2023-07-15T23:22:12.702Z,10.55
2023-07-15T23:24:44.869Z,9.07
2023-07-15T23:27:17.401Z,9.48
2023-07-15T23:29:49.667Z,11.35
2023-07-15T23:32:35.596Z,9.65
2023-07-15T23:35:14.381Z,10.02
2023-07-15T23:37:48.186Z,9.85
2023-07-15T23:40:20.522Z,9.85
2023-07-15T23:42:53.177Z,9.05
2023-07-15T23:45:27.481Z,9.85
2023-07-15T23:48:03.166Z,7.90
2023-07-15T23:50:38.687Z,10.27
2023-07-15T23:53:11.222Z,9.40
2023-07-15T23:55:43.361Z,8.55
2023-07-15T23:58:15.983Z,6.90
